sensor_id;sensor_type;location;lat;lon;timestamp;pressure;altitude;pressure_sealevel;temperature;humidity
78990;BME280;68390;52.130;21.218;2023-04-23T00:00:28;100330.97;;;5.75;75.21
78990;BME280;68390;52.130;21.218;2023-04-23T00:02:55;100322.06;;;5.73;75.41
78990;BME280;68390;52.130;21.218;2023-04-23T00:05:26;100321.34;;;5.71;75.44
78990;BME280;68390;52.130;21.218;2023-04-23T00:07:52;100321.78;;;5.67;75.65
78990;BME280;68390;52.130;21.218;2023-04-23T00:10:18;100320.91;;;5.66;76.07
78990;BME280;68390;52.130;21.218;2023-04-23T00:12:44;100316.47;;;5.65;75.30
78990;BME280;68390;52.130;21.218;2023-04-23T00:15:10;100321.91;;;5.65;75.40
78990;BME280;68390;52.130;21.218;2023-04-23T00:17:36;100320.19;;;5.64;75.64
78990;BME280;68390;52.130;21.218;2023-04-23T00:20:02;100314.03;;;5.62;75.86
78990;BME280;68390;52.130;21.218;2023-04-23T00:22:27;100323.06;;;5.63;76.08
78990;BME280;68390;52.130;21.218;2023-04-23T00:24:53;100310.59;;;5.60;76.04
78990;BME280;68390;52.130;21.218;2023-04-23T00:27:18;100320.78;;;5.58;75.98
78990;BME280;68390;52.130;21.218;2023-04-23T00:29:45;100318.78;;;5.60;76.16
78990;BME280;68390;52.130;21.218;2023-04-23T00:32:11;100309.16;;;5.56;75.52
78990;BME280;68390;52.130;21.218;2023-04-23T00:34:36;100311.88;;;5.56;76.29
78990;BME280;68390;52.130;21.218;2023-04-23T00:37:02;100305.84;;;5.52;76.15
78990;BME280;68390;52.130;21.218;2023-04-23T00:39:31;100304.97;;;5.52;76.07
78990;BME280;68390;52.130;21.218;2023-04-23T00:41:56;100308.00;;;5.49;76.22
78990;BME280;68390;52.130;21.218;2023-04-23T00:44:24;100305.53;;;5.46;76.08
78990;BME280;68390;52.130;21.218;2023-04-23T00:46:50;100301.97;;;5.45;75.47
78990;BME280;68390;52.130;21.218;2023-04-23T00:49:18;100309.41;;;5.43;76.01
78990;BME280;68390;52.130;21.218;2023-04-23T00:51:43;100305.09;;;5.41;75.59
78990;BME280;68390;52.130;21.218;2023-04-23T00:54:08;100308.97;;;5.38;76.34
78990;BME280;68390;52.130;21.218;2023-04-23T00:56:34;100313.69;;;5.36;76.34
78990;BME280;68390;52.130;21.218;2023-04-23T00:58:59;100306.53;;;5.35;76.18
78990;BME280;68390;52.130;21.218;2023-04-23T01:01:27;100306.66;;;5.34;76.20
78990;BME280;68390;52.130;21.218;2023-04-23T01:03:54;100301.47;;;5.31;75.84
78990;BME280;68390;52.130;21.218;2023-04-23T01:06:20;100303.34;;;5.30;75.67
78990;BME280;68390;52.130;21.218;2023-04-23T01:08:49;100308.94;;;5.29;76.54
78990;BME280;68390;52.130;21.218;2023-04-23T01:11:15;100312.69;;;5.28;75.91
78990;BME280;68390;52.130;21.218;2023-04-23T01:13:42;100309.22;;;5.26;76.68
78990;BME280;68390;52.130;21.218;2023-04-23T01:16:08;100309.50;;;5.23;76.96
78990;BME280;68390;52.130;21.218;2023-04-23T01:18:34;100312.94;;;5.25;76.67
78990;BME280;68390;52.130;21.218;2023-04-23T01:20:59;100307.75;;;5.22;77.10
78990;BME280;68390;52.130;21.218;2023-04-23T01:23:26;100311.47;;;5.21;77.01
78990;BME280;68390;52.130;21.218;2023-04-23T01:25:53;100317.91;;;5.20;77.00
78990;BME280;68390;52.130;21.218;2023-04-23T01:28:18;100310.06;;;5.16;77.23
78990;BME280;68390;52.130;21.218;2023-04-23T01:30:45;100312.91;;;5.15;77.37
78990;BME280;68390;52.130;21.218;2023-04-23T01:33:12;100305.75;;;5.14;77.56
78990;BME280;68390;52.130;21.218;2023-04-23T01:35:39;100311.44;;;5.11;77.79
78990;BME280;68390;52.130;21.218;2023-04-23T01:38:06;100316.03;;;5.10;77.21
78990;BME280;68390;52.130;21.218;2023-04-23T01:40:33;100311.75;;;5.08;76.79
78990;BME280;68390;52.130;21.218;2023-04-23T01:42:59;100310.88;;;5.07;77.06
78990;BME280;68390;52.130;21.218;2023-04-23T01:45:24;100322.78;;;5.06;77.57
78990;BME280;68390;52.130;21.218;2023-04-23T01:47:50;100321.03;;;5.05;77.48
78990;BME280;68390;52.130;21.218;2023-04-23T01:50:36;100316.84;;;5.01;77.59
78990;BME280;68390;52.130;21.218;2023-04-23T01:53:02;100315.13;;;5.00;77.37
78990;BME280;68390;52.130;21.218;2023-04-23T01:55:28;100313.56;;;4.98;77.73
78990;BME280;68390;52.130;21.218;2023-04-23T01:57:54;100312.53;;;4.99;77.75
78990;BME280;68390;52.130;21.218;2023-04-23T02:00:19;100313.56;;;4.98;77.34
78990;BME280;68390;52.130;21.218;2023-04-23T02:02:45;100316.44;;;4.96;77.13
78990;BME280;68390;52.130;21.218;2023-04-23T02:05:13;100318.28;;;4.96;76.69
78990;BME280;68390;52.130;21.218;2023-04-23T02:07:39;100319.41;;;4.93;77.71
78990;BME280;68390;52.130;21.218;2023-04-23T02:10:05;100318.69;;;4.91;77.05
78990;BME280;68390;52.130;21.218;2023-04-23T02:12:32;100317.94;;;4.89;77.43
78990;BME280;68390;52.130;21.218;2023-04-23T02:14:57;100317.38;;;4.86;77.63
78990;BME280;68390;52.130;21.218;2023-04-23T02:17:23;100320.50;;;4.81;78.20
78990;BME280;68390;52.130;21.218;2023-04-23T02:19:48;100316.19;;;4.78;77.52
78990;BME280;68390;52.130;21.218;2023-04-23T02:22:15;100320.06;;;4.76;77.28
78990;BME280;68390;52.130;21.218;2023-04-23T02:24:40;100307.72;;;4.72;77.77
78990;BME280;68390;52.130;21.218;2023-04-23T02:27:07;100318.59;;;4.72;78.29
78990;BME280;68390;52.130;21.218;2023-04-23T02:29:32;100308.84;;;4.69;77.54
78990;BME280;68390;52.130;21.218;2023-04-23T02:31:58;100303.81;;;4.65;78.30
78990;BME280;68390;52.130;21.218;2023-04-23T02:34:23;100312.38;;;4.60;78.48
78990;BME280;68390;52.130;21.218;2023-04-23T02:36:49;100312.50;;;4.59;78.36
78990;BME280;68390;52.130;21.218;2023-04-23T02:39:15;100314.34;;;4.58;78.60
78990;BME280;68390;52.130;21.218;2023-04-23T02:41:40;100312.78;;;4.56;78.84
78990;BME280;68390;52.130;21.218;2023-04-23T02:44:05;100314.63;;;4.55;78.98
78990;BME280;68390;52.130;21.218;2023-04-23T02:46:31;100300.81;;;4.47;78.13
78990;BME280;68390;52.130;21.218;2023-04-23T02:48:56;100313.44;;;4.48;78.58
78990;BME280;68390;52.130;21.218;2023-04-23T02:51:22;100312.72;;;4.46;79.38
78990;BME280;68390;52.130;21.218;2023-04-23T02:53:47;100303.97;;;4.42;79.25
78990;BME280;68390;52.130;21.218;2023-04-23T02:56:13;100309.66;;;4.39;78.99
78990;BME280;68390;52.130;21.218;2023-04-23T02:58:39;100308.94;;;4.37;79.37
78990;BME280;68390;52.130;21.218;2023-04-23T03:01:05;100303.78;;;4.34;79.49
78990;BME280;68390;52.130;21.218;2023-04-23T03:03:30;100309.47;;;4.31;79.42
78990;BME280;68390;52.130;21.218;2023-04-23T03:05:57;100308.75;;;4.29;79.84
78990;BME280;68390;52.130;21.218;2023-04-23T03:08:22;100307.00;;;4.28;79.38
78990;BME280;68390;52.130;21.218;2023-04-23T03:10:48;100313.31;;;4.29;79.89
78990;BME280;68390;52.130;21.218;2023-04-23T03:13:13;100311.59;;;4.28;79.65
78990;BME280;68390;52.130;21.218;2023-04-23T03:15:39;100311.59;;;4.28;79.36
78990;BME280;68390;52.130;21.218;2023-04-23T03:18:05;100317.16;;;4.26;79.11
78990;BME280;68390;52.130;21.218;2023-04-23T03:20:33;100311.00;;;4.24;79.59
78990;BME280;68390;52.130;21.218;2023-04-23T03:22:58;100309.41;;;4.22;79.31
78990;BME280;68390;52.130;21.218;2023-04-23T03:25:24;100313.84;;;4.23;79.33
78990;BME280;68390;52.130;21.218;2023-04-23T03:27:51;100302.38;;;4.19;79.88
78990;BME280;68390;52.130;21.218;2023-04-23T03:30:16;100314.09;;;4.20;79.72
78990;BME280;68390;52.130;21.218;2023-04-23T03:32:42;100302.63;;;4.16;79.44
78990;BME280;68390;52.130;21.218;2023-04-23T03:35:08;100307.19;;;4.16;80.04
78990;BME280;68390;52.130;21.218;2023-04-23T03:37:34;100301.75;;;4.16;80.40
78990;BME280;68390;52.130;21.218;2023-04-23T03:39:59;100312.63;;;4.16;79.95
78990;BME280;68390;52.130;21.218;2023-04-23T03:42:27;100310.66;;;4.18;79.75
78990;BME280;68390;52.130;21.218;2023-04-23T03:44:53;100313.50;;;4.16;80.16
78990;BME280;68390;52.130;21.218;2023-04-23T03:47:18;100308.94;;;4.17;80.29
78990;BME280;68390;52.130;21.218;2023-04-23T03:49:44;100307.06;;;4.17;79.84
78990;BME280;68390;52.130;21.218;2023-04-23T03:52:09;100304.34;;;4.17;80.13
78990;BME280;68390;52.130;21.218;2023-04-23T03:54:34;100312.38;;;4.19;80.17
78990;BME280;68390;52.130;21.218;2023-04-23T03:57:00;100300.53;;;4.20;80.37
78990;BME280;68390;52.130;21.218;2023-04-23T03:59:26;100305.81;;;4.21;79.98
78990;BME280;68390;52.130;21.218;2023-04-23T04:01:51;100302.97;;;4.23;80.43
78990;BME280;68390;52.130;21.218;2023-04-23T04:04:16;100308.28;;;4.24;80.61
78990;BME280;68390;52.130;21.218;2023-04-23T04:06:42;100312.44;;;4.28;80.74
78990;BME280;68390;52.130;21.218;2023-04-23T04:09:07;100316.75;;;4.31;80.35
78990;BME280;68390;52.130;21.218;2023-04-23T04:11:33;100306.63;;;4.33;79.89
78990;BME280;68390;52.130;21.218;2023-04-23T04:13:59;100301.63;;;4.38;80.50
78990;BME280;68390;52.130;21.218;2023-04-23T04:16:24;100308.53;;;4.42;80.01
78990;BME280;68390;52.130;21.218;2023-04-23T04:18:50;100314.59;;;4.46;80.84
78990;BME280;68390;52.130;21.218;2023-04-23T04:21:15;100308.84;;;4.49;80.59
78990;BME280;68390;52.130;21.218;2023-04-23T04:23:42;100314.78;;;4.54;80.56
78990;BME280;68390;52.130;21.218;2023-04-23T04:26:07;100308.06;;;4.58;80.80
78990;BME280;68390;52.130;21.218;2023-04-23T04:28:33;100305.81;;;4.63;80.51
78990;BME280;68390;52.130;21.218;2023-04-23T04:31:01;100305.25;;;4.69;80.48
78990;BME280;68390;52.130;21.218;2023-04-23T04:33:26;100303.00;;;4.74;80.88
78990;BME280;68390;52.130;21.218;2023-04-23T04:35:53;100305.16;;;4.80;81.22
78990;BME280;68390;52.130;21.218;2023-04-23T04:38:19;100308.06;;;4.88;81.10
78990;BME280;68390;52.130;21.218;2023-04-23T04:40:46;100308.81;;;5.00;80.79
78990;BME280;68390;52.130;21.218;2023-04-23T04:43:12;100302.28;;;5.12;81.21
78990;BME280;68390;52.130;21.218;2023-04-23T04:45:38;100308.09;;;5.28;81.21
78990;BME280;68390;52.130;21.218;2023-04-23T04:48:03;100304.22;;;5.40;81.50
78990;BME280;68390;52.130;21.218;2023-04-23T04:50:29;100310.41;;;5.52;81.10
78990;BME280;68390;52.130;21.218;2023-04-23T04:52:54;100304.28;;;5.60;80.31
78990;BME280;68390;52.130;21.218;2023-04-23T04:55:20;100304.31;;;5.69;80.41
78990;BME280;68390;52.130;21.218;2023-04-23T04:57:45;100304.16;;;5.80;79.83
78990;BME280;68390;52.130;21.218;2023-04-23T05:00:22;100307.94;;;5.99;79.24
78990;BME280;68390;52.130;21.218;2023-04-23T05:02:49;100305.34;;;6.16;76.75
78990;BME280;68390;52.130;21.218;2023-04-23T05:05:15;100302.44;;;6.37;78.21
78990;BME280;68390;52.130;21.218;2023-04-23T05:07:41;100304.97;;;6.58;76.58
78990;BME280;68390;52.130;21.218;2023-04-23T05:10:07;100296.84;;;6.85;75.12
78990;BME280;68390;52.130;21.218;2023-04-23T05:12:32;100306.34;;;7.18;71.56
78990;BME280;68390;52.130;21.218;2023-04-23T05:14:57;100296.94;;;7.58;71.17
78990;BME280;68390;52.130;21.218;2023-04-23T05:17:23;100296.81;;;7.77;71.72
78990;BME280;68390;52.130;21.218;2023-04-23T05:19:48;100306.44;;;7.99;70.68
78990;BME280;68390;52.130;21.218;2023-04-23T05:22:14;100302.66;;;8.18;68.26
78990;BME280;68390;52.130;21.218;2023-04-23T05:24:39;100301.66;;;8.62;67.16
78990;BME280;68390;52.130;21.218;2023-04-23T05:27:05;100300.97;;;8.86;65.71
78990;BME280;68390;52.130;21.218;2023-04-23T05:29:30;100300.53;;;9.33;64.13
78990;BME280;68390;52.130;21.218;2023-04-23T05:31:56;100300.84;;;9.80;62.85
78990;BME280;68390;52.130;21.218;2023-04-23T05:34:21;100300.78;;;10.22;60.41
78990;BME280;68390;52.130;21.218;2023-04-23T05:36:46;100306.13;;;10.48;58.03
78990;BME280;68390;52.130;21.218;2023-04-23T05:39:12;100300.91;;;10.85;56.28
78990;BME280;68390;52.130;21.218;2023-04-23T05:41:37;100290.72;;;11.02;57.26
78990;BME280;68390;52.130;21.218;2023-04-23T05:44:03;100297.78;;;11.04;55.49
78990;BME280;68390;52.130;21.218;2023-04-23T05:46:28;100296.41;;;11.09;56.33
78990;BME280;68390;52.130;21.218;2023-04-23T05:48:53;100291.03;;;11.15;54.77
78990;BME280;68390;52.130;21.218;2023-04-23T05:51:19;100295.28;;;11.26;54.73
78990;BME280;68390;52.130;21.218;2023-04-23T05:53:45;100302.81;;;11.32;55.13
78990;BME280;68390;52.130;21.218;2023-04-23T05:56:10;100295.78;;;11.37;55.96
78990;BME280;68390;52.130;21.218;2023-04-23T05:58:35;100288.16;;;11.48;55.01
78990;BME280;68390;52.130;21.218;2023-04-23T06:01:03;100281.75;;;11.55;55.47
78990;BME280;68390;52.130;21.218;2023-04-23T06:03:28;100287.22;;;11.63;55.67
78990;BME280;68390;52.130;21.218;2023-04-23T06:05:54;100288.22;;;11.70;59.19
78990;BME280;68390;52.130;21.218;2023-04-23T06:08:20;100281.00;;;11.77;55.71
78990;BME280;68390;52.130;21.218;2023-04-23T06:10:45;100287.28;;;11.86;54.99
78990;BME280;68390;52.130;21.218;2023-04-23T06:13:11;100288.09;;;11.95;55.12
78990;BME280;68390;52.130;21.218;2023-04-23T06:15:37;100282.56;;;12.03;54.05
78990;BME280;68390;52.130;21.218;2023-04-23T06:18:02;100298.66;;;12.14;54.34
78990;BME280;68390;52.130;21.218;2023-04-23T06:20:28;100293.75;;;12.24;52.53
78990;BME280;68390;52.130;21.218;2023-04-23T06:22:54;100290.75;;;12.34;53.72
78990;BME280;68390;52.130;21.218;2023-04-23T06:25:19;100286.13;;;12.49;55.41
78990;BME280;68390;52.130;21.218;2023-04-23T06:27:45;100286.31;;;12.85;51.99
78990;BME280;68390;52.130;21.218;2023-04-23T06:30:10;100289.25;;;12.98;53.51
78990;BME280;68390;52.130;21.218;2023-04-23T06:32:36;100285.56;;;13.06;51.54
78990;BME280;68390;52.130;21.218;2023-04-23T06:35:01;100288.09;;;13.15;49.94
78990;BME280;68390;52.130;21.218;2023-04-23T06:37:29;100285.97;;;13.32;48.96
78990;BME280;68390;52.130;21.218;2023-04-23T06:39:58;100286.72;;;13.41;48.69
78990;BME280;68390;52.130;21.218;2023-04-23T06:42:23;100287.97;;;13.53;51.69
78990;BME280;68390;52.130;21.218;2023-04-23T06:44:48;100275.09;;;13.60;50.08
78990;BME280;68390;52.130;21.218;2023-04-23T06:47:16;100279.06;;;13.72;49.17
78990;BME280;68390;52.130;21.218;2023-04-23T06:49:41;100278.56;;;13.83;48.06
78990;BME280;68390;52.130;21.218;2023-04-23T06:52:06;100279.78;;;13.95;47.88
78990;BME280;68390;52.130;21.218;2023-04-23T06:54:32;100266.69;;;14.04;48.65
78990;BME280;68390;52.130;21.218;2023-04-23T06:56:57;100265.75;;;14.12;47.67
78990;BME280;68390;52.130;21.218;2023-04-23T06:59:23;100274.56;;;14.22;49.30
78990;BME280;68390;52.130;21.218;2023-04-23T07:01:48;100265.06;;;14.31;46.71
78990;BME280;68390;52.130;21.218;2023-04-23T07:04:14;100269.88;;;14.44;47.11
78990;BME280;68390;52.130;21.218;2023-04-23T07:06:39;100271.31;;;14.61;47.61
78990;BME280;68390;52.130;21.218;2023-04-23T07:09:05;100269.97;;;14.78;47.30
78990;BME280;68390;52.130;21.218;2023-04-23T07:11:31;100272.00;;;14.97;47.82
78990;BME280;68390;52.130;21.218;2023-04-23T07:13:58;100273.84;;;15.18;46.48
78990;BME280;68390;52.130;21.218;2023-04-23T07:16:24;100272.03;;;15.32;44.37
78990;BME280;68390;52.130;21.218;2023-04-23T07:18:50;100267.00;;;15.49;43.70
78990;BME280;68390;52.130;21.218;2023-04-23T07:21:15;100271.78;;;15.68;42.83
78990;BME280;68390;52.130;21.218;2023-04-23T07:23:40;100272.75;;;15.88;44.14
78990;BME280;68390;52.130;21.218;2023-04-23T07:26:06;100269.59;;;16.04;44.73
78990;BME280;68390;52.130;21.218;2023-04-23T07:28:31;100271.09;;;16.20;42.46
78990;BME280;68390;52.130;21.218;2023-04-23T07:30:57;100269.22;;;16.34;41.70
78990;BME280;68390;52.130;21.218;2023-04-23T07:33:23;100268.19;;;16.48;41.75
78990;BME280;68390;52.130;21.218;2023-04-23T07:35:49;100263.09;;;16.65;42.13
78990;BME280;68390;52.130;21.218;2023-04-23T07:38:15;100261.19;;;16.78;42.33
78990;BME280;68390;52.130;21.218;2023-04-23T07:40:40;100255.00;;;16.90;40.18
78990;BME280;68390;52.130;21.218;2023-04-23T07:43:05;100261.78;;;16.94;38.92
78990;BME280;68390;52.130;21.218;2023-04-23T07:45:31;100256.66;;;17.04;42.41
78990;BME280;68390;52.130;21.218;2023-04-23T07:47:56;100255.34;;;17.26;40.82
78990;BME280;68390;52.130;21.218;2023-04-23T07:50:23;100260.16;;;17.64;38.77
78990;BME280;68390;52.130;21.218;2023-04-23T07:52:48;100248.16;;;18.08;39.77
78990;BME280;68390;52.130;21.218;2023-04-23T07:55:13;100253.44;;;18.54;36.28
78990;BME280;68390;52.130;21.218;2023-04-23T07:57:39;100254.38;;;18.97;34.29
78990;BME280;68390;52.130;21.218;2023-04-23T08:00:05;100249.38;;;19.42;33.52
78990;BME280;68390;52.130;21.218;2023-04-23T08:02:34;100246.06;;;19.89;32.63
78990;BME280;68390;52.130;21.218;2023-04-23T08:05:00;100235.75;;;20.19;33.00
78990;BME280;68390;52.130;21.218;2023-04-23T08:07:25;100248.13;;;20.53;31.37
78990;BME280;68390;52.130;21.218;2023-04-23T08:09:51;100252.41;;;20.79;31.01
78990;BME280;68390;52.130;21.218;2023-04-23T08:12:17;100246.72;;;20.97;29.74
78990;BME280;68390;52.130;21.218;2023-04-23T08:14:43;100244.22;;;21.19;30.51
78990;BME280;68390;52.130;21.218;2023-04-23T08:17:11;100250.16;;;21.46;31.01
78990;BME280;68390;52.130;21.218;2023-04-23T08:19:37;100239.41;;;21.66;29.12
78990;BME280;68390;52.130;21.218;2023-04-23T08:22:02;100230.44;;;21.92;30.99
78990;BME280;68390;52.130;21.218;2023-04-23T08:24:28;100231.91;;;21.95;26.86
78990;BME280;68390;52.130;21.218;2023-04-23T08:26:53;100229.69;;;22.09;29.41
78990;BME280;68390;52.130;21.218;2023-04-23T08:29:19;100224.91;;;22.21;31.93
78990;BME280;68390;52.130;21.218;2023-04-23T08:31:45;100224.69;;;22.39;26.52
78990;BME280;68390;52.130;21.218;2023-04-23T08:34:10;100225.03;;;22.59;27.38
78990;BME280;68390;52.130;21.218;2023-04-23T08:36:36;100226.41;;;22.74;27.50
78990;BME280;68390;52.130;21.218;2023-04-23T08:39:02;100238.34;;;22.69;26.26
78990;BME280;68390;52.130;21.218;2023-04-23T08:41:33;100221.47;;;22.47;26.42
78990;BME280;68390;52.130;21.218;2023-04-23T08:46:35;100226.09;;;22.25;25.12
78990;BME280;68390;52.130;21.218;2023-04-23T08:49:01;100228.47;;;22.33;27.31
78990;BME280;68390;52.130;21.218;2023-04-23T08:51:29;100219.56;;;22.36;25.04
78990;BME280;68390;52.130;21.218;2023-04-23T08:53:57;100226.88;;;22.37;26.17
78990;BME280;68390;52.130;21.218;2023-04-23T08:56:23;100224.81;;;22.32;25.30
78990;BME280;68390;52.130;21.218;2023-04-23T08:58:49;100222.13;;;22.38;24.50
78990;BME280;68390;52.130;21.218;2023-04-23T09:01:16;100213.00;;;22.14;25.08
78990;BME280;68390;52.130;21.218;2023-04-23T09:03:42;100206.72;;;22.07;23.88
78990;BME280;68390;52.130;21.218;2023-04-23T09:06:08;100210.03;;;21.92;25.03
78990;BME280;68390;52.130;21.218;2023-04-23T09:08:33;100208.25;;;21.86;25.91
78990;BME280;68390;52.130;21.218;2023-04-23T09:11:00;100208.03;;;21.76;26.51
78990;BME280;68390;52.130;21.218;2023-04-23T09:13:27;100205.75;;;21.61;25.75
78990;BME280;68390;52.130;21.218;2023-04-23T09:15:53;100204.44;;;21.52;27.40
78990;BME280;68390;52.130;21.218;2023-04-23T09:18:19;100205.06;;;21.42;27.20
78990;BME280;68390;52.130;21.218;2023-04-23T09:20:44;100198.19;;;21.33;26.51
78990;BME280;68390;52.130;21.218;2023-04-23T09:23:13;100194.78;;;21.19;27.06
78990;BME280;68390;52.130;21.218;2023-04-23T09:25:39;100198.06;;;21.16;28.81
78990;BME280;68390;52.130;21.218;2023-04-23T09:28:07;100195.50;;;21.15;28.14
78990;BME280;68390;52.130;21.218;2023-04-23T09:30:38;100203.28;;;21.13;26.95
78990;BME280;68390;52.130;21.218;2023-04-23T09:33:05;100203.50;;;21.11;27.83
78990;BME280;68390;52.130;21.218;2023-04-23T09:35:31;100199.53;;;21.19;26.65
78990;BME280;68390;52.130;21.218;2023-04-23T09:37:57;100185.06;;;21.34;27.35
78990;BME280;68390;52.130;21.218;2023-04-23T09:40:23;100191.47;;;21.46;26.56
78990;BME280;68390;52.130;21.218;2023-04-23T09:42:50;100187.66;;;21.64;27.75
78990;BME280;68390;52.130;21.218;2023-04-23T09:45:18;100191.09;;;21.82;28.10
78990;BME280;68390;52.130;21.218;2023-04-23T09:47:49;100177.31;;;21.92;25.75
78990;BME280;68390;52.130;21.218;2023-04-23T09:50:16;100176.31;;;22.10;25.66
78990;BME280;68390;52.130;21.218;2023-04-23T09:52:41;100177.19;;;22.27;26.36
78990;BME280;68390;52.130;21.218;2023-04-23T09:55:07;100167.38;;;22.42;24.18
78990;BME280;68390;52.130;21.218;2023-04-23T09:57:37;100173.81;;;22.59;24.50
78990;BME280;68390;52.130;21.218;2023-04-23T10:00:17;100181.03;;;22.72;28.00
78990;BME280;68390;52.130;21.218;2023-04-23T10:02:48;100163.97;;;22.73;24.55
78990;BME280;68390;52.130;21.218;2023-04-23T10:05:18;100172.22;;;22.80;22.02
78990;BME280;68390;52.130;21.218;2023-04-23T10:07:44;100171.28;;;22.91;24.75
78990;BME280;68390;52.130;21.218;2023-04-23T10:10:14;100168.22;;;22.92;22.28
78990;BME280;68390;52.130;21.218;2023-04-23T10:12:41;100157.41;;;23.01;23.91
78990;BME280;68390;52.130;21.218;2023-04-23T10:15:06;100159.31;;;23.17;23.58
78990;BME280;68390;52.130;21.218;2023-04-23T10:17:34;100159.41;;;23.22;23.12
78990;BME280;68390;52.130;21.218;2023-04-23T10:20:00;100145.84;;;23.14;22.43
78990;BME280;68390;52.130;21.218;2023-04-23T10:22:28;100147.41;;;23.27;22.49
78990;BME280;68390;52.130;21.218;2023-04-23T10:24:55;100151.97;;;23.33;24.25
78990;BME280;68390;52.130;21.218;2023-04-23T10:27:26;100149.81;;;23.18;22.75
78990;BME280;68390;52.130;21.218;2023-04-23T10:29:52;100145.31;;;23.17;23.40
78990;BME280;68390;52.130;21.218;2023-04-23T10:32:19;100140.50;;;23.13;23.53
78990;BME280;68390;52.130;21.218;2023-04-23T10:34:45;100142.91;;;23.04;25.16
78990;BME280;68390;52.130;21.218;2023-04-23T10:37:11;100146.28;;;23.06;25.96
78990;BME280;68390;52.130;21.218;2023-04-23T10:39:37;100135.00;;;23.01;23.45
78990;BME280;68390;52.130;21.218;2023-04-23T10:42:03;100136.72;;;23.02;26.63
78990;BME280;68390;52.130;21.218;2023-04-23T10:44:35;100144.06;;;23.08;23.07
78990;BME280;68390;52.130;21.218;2023-04-23T10:47:01;100127.94;;;23.15;24.77
78990;BME280;68390;52.130;21.218;2023-04-23T10:49:31;100119.44;;;23.10;24.46
78990;BME280;68390;52.130;21.218;2023-04-23T10:52:16;100125.06;;;23.10;23.47
78990;BME280;68390;52.130;21.218;2023-04-23T10:54:47;100121.59;;;23.03;23.47
78990;BME280;68390;52.130;21.218;2023-04-23T10:57:13;100107.84;;;23.01;24.02
78990;BME280;68390;52.130;21.218;2023-04-23T10:59:42;100109.28;;;23.04;23.31
78990;BME280;68390;52.130;21.218;2023-04-23T11:02:15;100114.91;;;23.04;25.04
78990;BME280;68390;52.130;21.218;2023-04-23T11:04:44;100108.69;;;23.02;23.76
78990;BME280;68390;52.130;21.218;2023-04-23T11:07:11;100105.22;;;22.95;24.39
78990;BME280;68390;52.130;21.218;2023-04-23T11:09:41;100100.81;;;22.99;24.01
78990;BME280;68390;52.130;21.218;2023-04-23T11:12:11;100099.75;;;23.05;26.82
78990;BME280;68390;52.130;21.218;2023-04-23T11:14:41;100093.91;;;23.06;25.42
78990;BME280;68390;52.130;21.218;2023-04-23T11:17:10;100099.94;;;23.15;27.35
78990;BME280;68390;52.130;21.218;2023-04-23T11:19:37;100094.97;;;23.22;25.81
78990;BME280;68390;52.130;21.218;2023-04-23T11:22:03;100084.84;;;23.21;23.16
78990;BME280;68390;52.130;21.218;2023-04-23T11:24:38;100089.75;;;23.31;24.24
78990;BME280;68390;52.130;21.218;2023-04-23T11:27:09;100093.84;;;23.23;23.01
78990;BME280;68390;52.130;21.218;2023-04-23T11:29:39;100093.38;;;23.10;22.60
78990;BME280;68390;52.130;21.218;2023-04-23T11:32:05;100076.78;;;23.03;23.71
78990;BME280;68390;52.130;21.218;2023-04-23T11:34:39;100090.78;;;23.03;23.85
78990;BME280;68390;52.130;21.218;2023-04-23T11:37:12;100096.69;;;23.06;26.20
78990;BME280;68390;52.130;21.218;2023-04-23T11:39:38;100080.22;;;23.10;25.71
78990;BME280;68390;52.130;21.218;2023-04-23T11:42:14;100079.91;;;23.06;24.72
78990;BME280;68390;52.130;21.218;2023-04-23T11:44:41;100082.31;;;22.98;24.95
78990;BME280;68390;52.130;21.218;2023-04-23T11:47:07;100083.94;;;22.94;23.61
78990;BME280;68390;52.130;21.218;2023-04-23T11:49:35;100067.81;;;22.84;23.21
78990;BME280;68390;52.130;21.218;2023-04-23T11:52:01;100077.63;;;22.82;22.42
78990;BME280;68390;52.130;21.218;2023-04-23T11:54:27;100064.72;;;22.81;22.98
78990;BME280;68390;52.130;21.218;2023-04-23T11:56:54;100066.41;;;22.82;24.06
78990;BME280;68390;52.130;21.218;2023-04-23T11:59:20;100060.09;;;22.75;23.68
78990;BME280;68390;52.130;21.218;2023-04-23T12:01:49;100063.94;;;22.68;24.39
78990;BME280;68390;52.130;21.218;2023-04-23T12:04:18;100054.78;;;22.73;27.42
78990;BME280;68390;52.130;21.218;2023-04-23T12:06:46;100043.16;;;22.81;24.59
78990;BME280;68390;52.130;21.218;2023-04-23T12:09:13;100059.72;;;22.83;24.31
78990;BME280;68390;52.130;21.218;2023-04-23T12:11:43;100053.34;;;22.70;24.34
78990;BME280;68390;52.130;21.218;2023-04-23T12:14:09;100045.19;;;22.69;24.77
78990;BME280;68390;52.130;21.218;2023-04-23T12:16:46;100037.84;;;22.63;23.98
78990;BME280;68390;52.130;21.218;2023-04-23T12:19:13;100046.41;;;22.56;23.77
78990;BME280;68390;52.130;21.218;2023-04-23T12:21:49;100038.72;;;22.47;24.46
78990;BME280;68390;52.130;21.218;2023-04-23T12:24:15;100032.31;;;22.29;24.07
78990;BME280;68390;52.130;21.218;2023-04-23T12:26:41;100033.06;;;22.25;26.22
78990;BME280;68390;52.130;21.218;2023-04-23T12:29:07;100027.06;;;22.16;23.67
78990;BME280;68390;52.130;21.218;2023-04-23T12:31:36;100024.94;;;22.07;24.39
78990;BME280;68390;52.130;21.218;2023-04-23T12:34:03;100024.59;;;22.03;25.15
78990;BME280;68390;52.130;21.218;2023-04-23T12:36:30;100032.03;;;21.97;25.03
78990;BME280;68390;52.130;21.218;2023-04-23T12:39:22;100026.53;;;21.86;26.21
78990;BME280;68390;52.130;21.218;2023-04-23T12:41:53;100005.69;;;21.77;23.37
78990;BME280;68390;52.130;21.218;2023-04-23T12:44:20;100022.69;;;21.75;26.42